createdAt,value
2017-06-13T00:00:46.937Z,16.70
2017-06-13T00:03:14.505Z,13.70
2017-06-13T00:05:42.067Z,11.87
2017-06-13T00:08:09.638Z,9.17
2017-06-13T00:10:37.198Z,13.13
2017-06-13T00:13:04.778Z,10.53
2017-06-13T00:15:32.329Z,15.13
2017-06-13T00:17:59.898Z,12.30
2017-06-13T00:20:27.483Z,13.00
2017-06-13T00:22:55.356Z,14.67
2017-06-13T00:25:23.717Z,10.60
2017-06-13T00:27:52.193Z,13.83
2017-06-13T00:30:19.754Z,10.40
2017-06-13T00:32:48.129Z,14.10
2017-06-13T00:35:15.701Z,11.37
2017-06-13T00:37:44.036Z,13.77
2017-06-13T00:40:11.625Z,11.70
2017-06-13T00:42:39.242Z,12.87
2017-06-13T00:45:06.851Z,15.03
2017-06-13T00:47:34.415Z,14.70
2017-06-13T00:50:01.982Z,16.53
2017-06-13T00:52:30.309Z,11.83
2017-06-13T00:54:57.878Z,11.97
2017-06-13T00:57:25.564Z,12.47
2017-06-13T00:59:53.135Z,12.07
2017-06-13T01:02:20.697Z,5.87
2017-06-13T01:04:49.050Z,13.50
2017-06-13T01:07:16.626Z,15.23
2017-06-13T01:09:44.187Z,17.30
2017-06-13T01:12:11.814Z,11.10
2017-06-13T01:14:39.378Z,9.30
2017-06-13T01:17:06.956Z,14.80
2017-06-13T01:19:34.551Z,8.37
2017-06-13T01:22:02.133Z,11.43
2017-06-13T01:24:29.783Z,10.97
2017-06-13T01:26:58.158Z,15.67
2017-06-13T01:29:25.722Z,15.00
2017-06-13T01:31:54.061Z,10.77
2017-06-13T01:34:21.673Z,9.60
2017-06-13T01:36:49.250Z,12.60
2017-06-13T01:39:16.836Z,13.70
2017-06-13T01:41:44.389Z,8.03
2017-06-13T01:44:11.949Z,10.00
2017-06-13T01:46:39.539Z,12.93
2017-06-13T01:49:07.100Z,14.10
2017-06-13T01:51:34.832Z,10.40
2017-06-13T01:54:02.398Z,14.20
2017-06-13T01:56:29.978Z,20.37
2017-06-13T01:58:57.549Z,16.67
2017-06-13T02:01:25.134Z,14.83
2017-06-13T02:03:53.669Z,12.23
2017-06-13T02:06:21.258Z,16.07
2017-06-13T02:08:48.817Z,21.20
2017-06-13T02:11:16.398Z,17.23
2017-06-13T02:13:43.970Z,12.80
2017-06-13T02:16:12.429Z,14.63
2017-06-13T02:18:40.010Z,13.37
2017-06-13T02:21:08.342Z,11.60
2017-06-13T02:23:35.892Z,14.47
2017-06-13T02:26:03.478Z,12.77
2017-06-13T02:28:31.079Z,13.33
2017-06-13T02:30:58.644Z,11.40
2017-06-13T02:33:26.189Z,9.53
2017-06-13T02:35:54.533Z,15.43
2017-06-13T02:38:22.134Z,15.47
2017-06-13T02:40:49.716Z,15.03
2017-06-13T02:43:17.280Z,15.23
2017-06-13T02:45:44.891Z,12.47
2017-06-13T02:48:12.449Z,12.33
2017-06-13T02:50:39.994Z,9.73
2017-06-13T02:53:07.578Z,18.73
2017-06-13T02:55:35.131Z,15.17
2017-06-13T02:58:02.813Z,17.53
2017-06-13T03:00:31.132Z,18.63
2017-06-13T03:02:58.683Z,12.37
2017-06-13T03:05:26.273Z,12.10
2017-06-13T03:07:53.822Z,30.20
2017-06-13T03:10:21.447Z,20.20
2017-06-13T03:12:49.789Z,14.70
2017-06-13T03:15:17.365Z,22.60
2017-06-13T03:17:44.931Z,22.30
2017-06-13T03:20:13.261Z,16.33
2017-06-13T03:22:40.870Z,15.60
2017-06-13T03:25:09.213Z,10.43
2017-06-13T03:27:37.702Z,12.40
2017-06-13T03:30:05.330Z,16.47
2017-06-13T03:32:32.902Z,13.77
2017-06-13T03:35:00.503Z,13.60
2017-06-13T03:37:28.058Z,11.47
2017-06-13T03:39:55.645Z,15.73
2017-06-13T03:42:23.980Z,16.30
2017-06-13T03:44:51.558Z,15.10
2017-06-13T03:47:19.148Z,17.23
2017-06-13T03:49:47.481Z,16.00
2017-06-13T03:52:15.170Z,17.73
2017-06-13T03:54:42.755Z,15.13
2017-06-13T03:57:11.074Z,17.10
2017-06-13T03:59:38.650Z,14.53
2017-06-13T04:02:06.234Z,19.47
2017-06-13T04:04:33.789Z,13.87
2017-06-13T04:07:01.354Z,18.73
2017-06-13T04:09:28.930Z,12.07
2017-06-13T04:11:57.277Z,15.10
2017-06-13T04:14:24.855Z,23.63
2017-06-13T04:16:52.429Z,18.13
2017-06-13T04:19:20.786Z,15.73
2017-06-13T04:21:48.337Z,15.37
2017-06-13T04:24:15.910Z,15.73
2017-06-13T04:26:43.506Z,17.37
2017-06-13T04:29:11.890Z,14.80
2017-06-13T04:31:39.458Z,15.97
2017-06-13T04:34:07.041Z,14.60
2017-06-13T04:36:34.628Z,15.90
2017-06-13T04:39:02.847Z,16.47
2017-06-13T04:41:30.437Z,13.10
2017-06-13T04:43:58.009Z,14.73
2017-06-13T04:46:25.614Z,13.47
2017-06-13T04:48:53.949Z,12.37
2017-06-13T04:51:21.510Z,14.93
2017-06-13T04:53:49.079Z,21.17
2017-06-13T04:56:16.653Z,12.80
2017-06-13T04:58:44.312Z,19.80
2017-06-13T05:01:11.902Z,14.83
2017-06-13T05:03:39.465Z,15.47
2017-06-13T05:06:07.839Z,18.30
2017-06-13T05:08:36.189Z,16.83
2017-06-13T05:11:03.757Z,14.70
2017-06-13T05:13:31.321Z,15.47
2017-06-13T05:15:58.899Z,15.13
2017-06-13T05:18:27.253Z,14.40
2017-06-13T05:20:54.842Z,14.03
2017-06-13T05:23:22.420Z,16.13
2017-06-13T05:25:49.979Z,12.67
2017-06-13T05:28:17.531Z,17.20
2017-06-13T05:30:45.878Z,19.00
2017-06-13T05:33:13.460Z,18.07
2017-06-13T05:35:41.793Z,18.43
2017-06-13T05:38:09.393Z,19.40
2017-06-13T05:40:37.751Z,14.43
2017-06-13T05:43:05.322Z,21.53
2017-06-13T05:45:32.871Z,11.97
2017-06-13T05:48:00.504Z,14.90
2017-06-13T05:50:28.052Z,13.93
2017-06-13T05:52:55.642Z,17.50
2017-06-13T05:55:23.235Z,14.07
2017-06-13T05:57:50.788Z,18.63
2017-06-13T06:00:18.370Z,22.70
2017-06-13T06:02:45.934Z,18.50
2017-06-13T06:05:13.509Z,11.30
2017-06-13T06:07:41.835Z,16.90
2017-06-13T06:10:09.434Z,17.50
2017-06-13T06:12:37.038Z,15.47
2017-06-13T06:15:04.611Z,17.37
2017-06-13T06:17:32.174Z,18.87
2017-06-13T06:20:03.007Z,20.73
2017-06-13T06:22:31.376Z,16.27
2017-06-13T06:24:59.027Z,22.73
2017-06-13T06:27:26.590Z,26.87
2017-06-13T06:29:54.151Z,16.20
2017-06-13T06:32:21.723Z,17.97
2017-06-13T06:34:49.289Z,20.93
2017-06-13T06:37:16.876Z,16.37
2017-06-13T06:39:44.450Z,19.83
2017-06-13T06:42:12.000Z,15.60
2017-06-13T06:44:39.598Z,18.33
2017-06-13T06:47:07.167Z,21.53
2017-06-13T06:49:34.737Z,14.47
2017-06-13T06:52:02.310Z,21.67
2017-06-13T06:54:29.889Z,22.57
2017-06-13T06:56:57.444Z,20.90
2017-06-13T06:59:25.010Z,18.57
2017-06-13T07:01:52.609Z,23.10
2017-06-13T07:04:20.978Z,21.47
2017-06-13T07:06:49.301Z,19.63
2017-06-13T07:09:16.898Z,18.83
2017-06-13T07:11:44.475Z,15.00
2017-06-13T07:14:12.045Z,23.83
2017-06-13T07:16:39.609Z,18.40
2017-06-13T07:19:07.952Z,30.67
2017-06-13T07:21:35.553Z,20.30
2017-06-13T07:24:03.121Z,16.70
2017-06-13T07:26:31.445Z,18.63
2017-06-13T07:28:59.042Z,23.50
2017-06-13T07:31:27.389Z,11.33
2017-06-13T07:33:54.937Z,16.50
2017-06-13T07:36:22.515Z,18.10
2017-06-13T07:38:50.112Z,19.00
2017-06-13T07:41:18.441Z,21.33
2017-06-13T07:43:46.015Z,20.90
2017-06-13T07:46:13.636Z,25.90
2017-06-13T07:48:41.207Z,20.73
2017-06-13T07:51:08.777Z,24.93
2017-06-13T07:53:36.363Z,16.53
2017-06-13T07:56:03.934Z,17.90
2017-06-13T07:58:31.500Z,23.27
2017-06-13T08:00:59.090Z,21.23
2017-06-13T08:03:26.676Z,17.67
2017-06-13T08:05:54.274Z,20.80
2017-06-13T08:08:21.866Z,21.93
2017-06-13T08:10:50.181Z,20.40
2017-06-13T08:13:17.757Z,23.97
2017-06-13T08:15:45.417Z,20.30
2017-06-13T08:18:12.996Z,19.53
2017-06-13T08:20:40.578Z,21.53
2017-06-13T08:23:08.937Z,20.37
2017-06-13T08:25:36.497Z,20.20
2017-06-13T08:28:04.076Z,22.43
2017-06-13T08:30:31.639Z,20.27
2017-06-13T08:32:59.222Z,22.90
2017-06-13T08:35:26.803Z,25.70
2017-06-13T08:37:54.394Z,25.57
2017-06-13T08:40:21.989Z,21.00
2017-06-13T08:42:50.337Z,19.90
2017-06-13T08:45:17.938Z,21.30
2017-06-13T08:47:46.266Z,17.80
2017-06-13T08:50:13.822Z,22.07
2017-06-13T08:52:41.431Z,21.47
2017-06-13T08:55:08.993Z,23.70
2017-06-13T08:57:37.334Z,23.37
2017-06-13T09:00:04.931Z,20.30
2017-06-13T09:02:33.295Z,19.30
2017-06-13T09:05:00.851Z,18.80
2017-06-13T09:07:28.426Z,12.50
2017-06-13T09:09:56.014Z,15.20
2017-06-13T09:12:23.582Z,18.40
2017-06-13T09:14:51.190Z,16.10
2017-06-13T09:17:18.738Z,16.87
2017-06-13T09:19:46.303Z,14.20
2017-06-13T09:22:13.914Z,16.57
2017-06-13T09:24:41.483Z,19.77
2017-06-13T09:27:09.055Z,22.43
2017-06-13T09:29:36.739Z,17.73
2017-06-13T09:32:04.314Z,26.47
2017-06-13T09:34:31.910Z,18.37
2017-06-13T09:36:59.486Z,18.13
2017-06-13T09:39:27.051Z,15.33
2017-06-13T09:41:54.634Z,12.17
2017-06-13T09:44:22.301Z,22.23
2017-06-13T09:46:49.889Z,11.53
2017-06-13T09:49:17.458Z,16.13
2017-06-13T09:51:45.025Z,16.33
2017-06-13T09:54:12.627Z,15.23
2017-06-13T09:56:40.186Z,19.83
2017-06-13T09:59:07.774Z,14.37
2017-06-13T10:01:35.370Z,19.63
2017-06-13T10:04:02.938Z,16.50
2017-06-13T10:06:31.291Z,13.97
2017-06-13T10:08:58.930Z,13.87
2017-06-13T10:11:26.485Z,9.90
2017-06-13T10:13:54.059Z,15.33
2017-06-13T10:16:21.629Z,12.30
2017-06-13T10:18:49.203Z,12.80
2017-06-13T10:21:16.800Z,16.47
2017-06-13T10:23:44.439Z,18.03
2017-06-13T10:26:12.014Z,18.90
2017-06-13T10:28:40.375Z,15.67
2017-06-13T10:31:07.951Z,15.00
2017-06-13T10:33:36.299Z,12.50
2017-06-13T10:36:03.887Z,12.17
2017-06-13T10:38:32.223Z,11.30
2017-06-13T10:40:59.809Z,9.30
2017-06-13T10:43:27.385Z,6.47
2017-06-13T10:45:54.933Z,6.57
2017-06-13T10:48:22.503Z,10.50
2017-06-13T10:50:50.050Z,4.33
2017-06-13T10:53:17.630Z,9.23
2017-06-13T10:55:45.987Z,7.43
2017-06-13T10:58:13.549Z,7.70
2017-06-13T11:00:41.132Z,5.87
2017-06-13T11:03:08.734Z,8.10
2017-06-13T11:05:36.278Z,4.90
2017-06-13T11:08:03.829Z,9.67
2017-06-13T11:10:31.406Z,5.57
2017-06-13T11:12:58.962Z,5.53
2017-06-13T11:15:26.526Z,5.63
2017-06-13T11:17:54.126Z,4.50
2017-06-13T11:20:21.682Z,7.90
2017-06-13T11:22:49.307Z,3.07
2017-06-13T11:25:16.930Z,4.10
2017-06-13T11:27:44.497Z,4.07
2017-06-13T11:30:12.065Z,4.50
2017-06-13T11:32:39.643Z,5.97
2017-06-13T11:35:08.018Z,4.67
2017-06-13T11:37:36.379Z,5.50
2017-06-13T11:40:03.944Z,7.30
2017-06-13T11:42:32.290Z,8.33
2017-06-13T11:44:59.846Z,5.93
2017-06-13T11:47:27.786Z,6.40
2017-06-13T11:49:55.377Z,3.90
2017-06-13T11:52:22.942Z,12.17
2017-06-13T11:54:50.530Z,3.90
2017-06-13T11:57:18.089Z,4.70
2017-06-13T11:59:45.683Z,4.90
2017-06-13T12:02:13.245Z,5.83
2017-06-13T12:04:40.818Z,5.93
2017-06-13T12:07:08.394Z,3.80
2017-06-13T12:09:35.949Z,4.47
2017-06-13T12:12:03.582Z,5.87
2017-06-13T12:14:31.174Z,7.90
2017-06-13T12:16:58.772Z,5.97
2017-06-13T12:19:26.319Z,6.33
2017-06-13T12:21:53.936Z,7.60
2017-06-13T12:24:21.487Z,6.53
2017-06-13T12:26:49.050Z,6.30
2017-06-13T12:29:16.674Z,9.13
2017-06-13T12:31:44.237Z,6.40
2017-06-13T12:34:11.927Z,6.80
2017-06-13T12:36:40.421Z,7.27
2017-06-13T12:39:07.976Z,4.03
2017-06-13T12:41:36.314Z,6.13
2017-06-13T12:44:03.919Z,6.43
2017-06-13T12:46:31.503Z,4.97
2017-06-13T12:48:59.065Z,6.90
2017-06-13T12:51:26.625Z,6.93
2017-06-13T12:53:54.228Z,6.20
2017-06-13T12:56:21.800Z,5.90
2017-06-13T12:58:49.362Z,5.13
2017-06-13T13:01:16.959Z,4.53
2017-06-13T13:03:44.528Z,7.53
2017-06-13T13:06:12.090Z,6.87
2017-06-13T13:08:39.669Z,8.23
2017-06-13T13:11:07.234Z,5.80
2017-06-13T13:13:34.813Z,7.57
2017-06-13T13:16:02.383Z,6.43
2017-06-13T13:18:29.952Z,6.47
2017-06-13T13:20:57.552Z,5.10
2017-06-13T13:23:25.103Z,6.87
2017-06-13T13:25:52.695Z,6.77
2017-06-13T13:28:20.262Z,7.73
2017-06-13T13:30:47.852Z,9.20
2017-06-13T13:33:15.458Z,7.70
2017-06-13T13:35:43.005Z,6.80
2017-06-13T13:38:10.598Z,7.47
2017-06-13T13:40:38.171Z,4.43
2017-06-13T13:43:05.742Z,5.30
2017-06-13T13:45:33.355Z,5.53
2017-06-13T13:48:00.986Z,7.70
2017-06-13T13:50:28.578Z,6.60
2017-06-13T13:52:56.151Z,7.90
2017-06-13T13:55:23.717Z,4.97
2017-06-13T13:57:51.310Z,7.07
2017-06-13T14:00:18.869Z,13.03
2017-06-13T14:02:46.439Z,6.20
2017-06-13T14:05:14.038Z,7.00
2017-06-13T14:07:41.632Z,5.97
2017-06-13T14:10:09.183Z,8.10
2017-06-13T14:12:36.773Z,5.70
2017-06-13T14:15:04.350Z,5.73
2017-06-13T14:17:31.966Z,6.07
2017-06-13T14:19:59.511Z,5.30
2017-06-13T14:22:27.084Z,5.77
2017-06-13T14:24:54.692Z,7.10
2017-06-13T14:27:22.278Z,10.37
2017-06-13T14:29:50.666Z,7.60
2017-06-13T14:32:18.978Z,6.63
2017-06-13T14:34:46.538Z,5.07
2017-06-13T14:37:14.119Z,6.90
2017-06-13T14:39:41.730Z,8.43
2017-06-13T14:42:09.295Z,10.70
2017-06-13T14:44:36.922Z,6.83
2017-06-13T14:47:04.479Z,8.80
2017-06-13T14:49:32.053Z,8.13
2017-06-13T14:51:59.622Z,6.27
2017-06-13T14:54:27.965Z,10.87
2017-06-13T14:56:55.554Z,10.03
2017-06-13T14:59:23.123Z,11.40
2017-06-13T15:01:51.482Z,8.03
2017-06-13T15:04:19.079Z,7.43
2017-06-13T15:06:46.642Z,8.30
2017-06-13T15:09:14.237Z,6.47
2017-06-13T15:11:41.803Z,9.23
2017-06-13T15:14:09.362Z,5.80
2017-06-13T15:16:36.950Z,5.47
2017-06-13T15:19:04.502Z,6.63
2017-06-13T15:21:32.131Z,12.30
2017-06-13T15:23:59.694Z,6.43
2017-06-13T15:26:27.259Z,4.60
2017-06-13T15:28:54.830Z,4.90
2017-06-13T15:31:22.422Z,5.10
2017-06-13T15:33:50.799Z,8.80
2017-06-13T15:36:18.371Z,5.97
2017-06-13T15:38:45.931Z,6.57
2017-06-13T15:41:13.517Z,5.33
2017-06-13T15:43:41.128Z,7.13
2017-06-13T15:46:08.751Z,5.20
2017-06-13T15:48:36.323Z,8.10
2017-06-13T15:51:03.894Z,6.93
2017-06-13T15:53:31.500Z,6.67
2017-06-13T15:55:59.072Z,8.50
2017-06-13T15:58:26.788Z,6.17
2017-06-13T16:00:54.349Z,9.30
2017-06-13T16:03:21.930Z,8.83
2017-06-13T16:05:49.510Z,8.33
2017-06-13T16:08:17.841Z,9.40
2017-06-13T16:10:45.413Z,6.97
2017-06-13T16:13:13.003Z,8.43
2017-06-13T16:15:40.609Z,8.30
2017-06-13T16:18:08.210Z,7.50
2017-06-13T16:20:35.773Z,11.00
2017-06-13T16:23:03.326Z,7.23
2017-06-13T16:25:30.922Z,8.27
2017-06-13T16:27:59.261Z,6.00
2017-06-13T16:30:26.870Z,7.30
2017-06-13T16:32:54.509Z,7.90
2017-06-13T16:35:22.842Z,5.23
2017-06-13T16:37:50.434Z,6.80
2017-06-13T16:40:18.003Z,8.83
2017-06-13T16:42:45.609Z,6.30
2017-06-13T16:45:13.214Z,7.77
2017-06-13T16:47:40.905Z,6.57
2017-06-13T16:50:08.532Z,6.00
2017-06-13T16:52:36.108Z,4.80
2017-06-13T16:55:03.681Z,5.13
2017-06-13T16:57:31.286Z,7.73
2017-06-13T16:59:58.862Z,6.40
2017-06-13T17:02:26.526Z,6.03
2017-06-13T17:04:54.122Z,6.77
2017-06-13T17:07:21.783Z,8.53
2017-06-13T17:09:49.390Z,10.43
2017-06-13T17:12:16.983Z,7.23
2017-06-13T17:14:44.561Z,5.80
2017-06-13T17:17:12.142Z,9.40
2017-06-13T17:19:39.761Z,11.83
2017-06-13T17:22:07.347Z,8.83
2017-06-13T17:24:34.938Z,10.70
2017-06-13T17:27:02.546Z,11.10
2017-06-13T17:29:30.116Z,11.20
2017-06-13T17:31:57.694Z,5.83
2017-06-13T17:34:25.284Z,7.10
2017-06-13T17:36:52.834Z,5.90
2017-06-13T17:39:20.435Z,7.07
2017-06-13T17:41:48.017Z,6.63
2017-06-13T17:44:15.606Z,6.20
2017-06-13T17:46:43.214Z,6.57
2017-06-13T17:49:10.806Z,5.97
2017-06-13T17:51:38.369Z,5.60
2017-06-13T17:54:06.118Z,9.53
2017-06-13T17:56:33.724Z,5.00
2017-06-13T17:59:02.064Z,8.30
2017-06-13T18:01:29.634Z,8.97
2017-06-13T18:03:57.201Z,5.73
2017-06-13T18:06:24.789Z,7.47
2017-06-13T18:08:53.167Z,8.63
2017-06-13T18:11:21.505Z,4.80
2017-06-13T18:13:49.078Z,6.53
2017-06-13T18:16:16.650Z,5.13
2017-06-13T18:18:44.238Z,6.47
2017-06-13T18:21:11.803Z,7.57
2017-06-13T18:23:39.381Z,5.83
2017-06-13T18:26:06.954Z,5.23
2017-06-13T18:28:34.652Z,5.97
2017-06-13T18:31:02.256Z,7.70
2017-06-13T18:33:29.861Z,8.90
2017-06-13T18:35:57.413Z,7.07
2017-06-13T18:38:25.002Z,6.40
2017-06-13T18:40:52.602Z,9.00
2017-06-13T18:43:20.186Z,6.00
2017-06-13T18:45:47.751Z,6.53
2017-06-13T18:48:15.357Z,6.53
2017-06-13T18:50:43.685Z,6.30
2017-06-13T18:53:11.255Z,5.00
2017-06-13T18:55:38.870Z,8.10
2017-06-13T18:58:07.213Z,5.40
2017-06-13T19:00:34.804Z,4.43
2017-06-13T19:03:03.156Z,7.60
2017-06-13T19:05:30.794Z,6.43
2017-06-13T19:07:58.378Z,4.57
2017-06-13T19:10:25.955Z,4.43
2017-06-13T19:12:53.543Z,8.33
2017-06-13T19:15:21.131Z,3.73
2017-06-13T19:17:48.707Z,5.23
2017-06-13T19:20:16.293Z,3.43
2017-06-13T19:22:43.867Z,6.63
2017-06-13T19:25:11.470Z,5.90
2017-06-13T19:27:39.046Z,6.93
2017-06-13T19:30:06.632Z,4.00
2017-06-13T19:32:34.234Z,4.30
2017-06-13T19:35:01.835Z,8.00
2017-06-13T19:37:29.433Z,8.10
2017-06-13T19:39:57.015Z,8.63
2017-06-13T19:42:24.603Z,6.23
2017-06-13T19:44:52.206Z,5.17
2017-06-13T19:47:19.767Z,7.30
2017-06-13T19:49:47.379Z,4.67
2017-06-13T19:52:14.954Z,7.23
2017-06-13T19:54:42.590Z,7.97
2017-06-13T19:57:10.189Z,5.97
2017-06-13T19:59:37.754Z,6.50
2017-06-13T20:02:05.347Z,8.13
2017-06-13T20:04:33.194Z,6.20
2017-06-13T20:07:00.756Z,6.47
2017-06-13T20:09:28.341Z,8.03
2017-06-13T20:11:56.681Z,6.10
2017-06-13T20:14:24.259Z,6.60
2017-06-13T20:16:51.874Z,6.23
2017-06-13T20:19:19.515Z,7.00
2017-06-13T20:21:47.074Z,8.07
2017-06-13T20:24:14.641Z,5.83
2017-06-13T20:26:43.031Z,7.80
2017-06-13T20:29:14.505Z,10.40
2017-06-13T20:31:42.099Z,10.67
2017-06-13T20:34:09.704Z,9.10
2017-06-13T20:36:37.264Z,6.80
2017-06-13T20:39:04.857Z,8.00
2017-06-13T20:41:32.546Z,9.00
2017-06-13T20:44:00.117Z,10.27
2017-06-13T20:46:27.789Z,7.03
2017-06-13T20:48:56.142Z,7.97
2017-06-13T20:51:23.733Z,7.57
2017-06-13T20:53:53.265Z,8.03
2017-06-13T20:56:21.029Z,7.20
2017-06-13T20:58:48.575Z,9.03
2017-06-13T21:01:16.894Z,5.43
2017-06-13T21:03:44.494Z,8.70
2017-06-13T21:06:12.122Z,7.30
2017-06-13T21:08:39.690Z,7.10
2017-06-13T21:11:07.266Z,8.30
2017-06-13T21:13:34.830Z,8.93
2017-06-13T21:16:02.414Z,5.93
2017-06-13T21:18:30.794Z,6.23
2017-06-13T21:20:59.125Z,8.23
2017-06-13T21:23:26.699Z,12.27
2017-06-13T21:25:54.290Z,7.07
2017-06-13T21:28:22.663Z,7.40
2017-06-13T21:30:50.261Z,11.10
2017-06-13T21:33:17.837Z,9.70
2017-06-13T21:35:45.441Z,10.73
2017-06-13T21:38:13.005Z,11.70
2017-06-13T21:40:40.649Z,7.33
2017-06-13T21:43:08.225Z,7.43
2017-06-13T21:45:35.790Z,8.20
2017-06-13T21:48:04.137Z,10.03
2017-06-13T21:50:31.710Z,7.50
2017-06-13T21:52:59.282Z,8.60
2017-06-13T21:55:26.837Z,9.20
2017-06-13T21:57:54.469Z,7.93
2017-06-13T22:00:22.029Z,6.50
2017-06-13T22:02:49.630Z,7.07
2017-06-13T22:05:17.211Z,6.67
2017-06-13T22:07:45.545Z,8.40
2017-06-13T22:10:13.144Z,9.83
2017-06-13T22:12:40.686Z,9.67
2017-06-13T22:15:08.281Z,6.43
2017-06-13T22:17:35.853Z,6.30
2017-06-13T22:20:03.412Z,8.10
2017-06-13T22:22:31.075Z,7.30
2017-06-13T22:24:58.658Z,9.17
2017-06-13T22:27:26.247Z,10.37
2017-06-13T22:29:53.838Z,8.03
2017-06-13T22:32:22.162Z,6.63
2017-06-13T22:34:49.816Z,8.20
2017-06-13T22:37:17.373Z,10.13
2017-06-13T22:39:44.986Z,8.37
2017-06-13T22:42:12.584Z,9.50
2017-06-13T22:44:40.154Z,10.00
2017-06-13T22:47:07.757Z,8.60
2017-06-13T22:49:35.342Z,9.10
2017-06-13T22:52:03.672Z,12.90
2017-06-13T22:54:31.247Z,9.93
2017-06-13T22:56:58.818Z,10.03
2017-06-13T22:59:26.381Z,11.90
2017-06-13T23:01:53.981Z,9.50
2017-06-13T23:04:22.426Z,8.70
2017-06-13T23:06:49.986Z,10.07
2017-06-13T23:09:17.591Z,10.60
2017-06-13T23:11:45.158Z,10.80
2017-06-13T23:14:12.736Z,7.73
2017-06-13T23:16:40.341Z,10.87
2017-06-13T23:19:07.910Z,12.97
2017-06-13T23:21:36.241Z,8.87
2017-06-13T23:24:03.845Z,10.30
2017-06-13T23:26:31.416Z,8.50
2017-06-13T23:28:59.757Z,14.80
2017-06-13T23:31:27.355Z,10.97
2017-06-13T23:33:55.679Z,12.83
2017-06-13T23:36:23.262Z,11.80
2017-06-13T23:38:50.827Z,18.73
2017-06-13T23:41:18.389Z,14.33
2017-06-13T23:43:45.966Z,13.40
2017-06-13T23:46:13.530Z,14.23
2017-06-13T23:48:41.898Z,11.40
2017-06-13T23:51:09.485Z,12.90
2017-06-13T23:53:37.815Z,16.90
2017-06-13T23:56:05.402Z,11.10
2017-06-13T23:58:33.022Z,10.20
